Terminal Aerodrome Forecast
Issued by NWS

Home | Current Version | Previous Version | Text Only | Print | Product List | Glossary On
Versions: 1 2 3 4 5 6 7 8 9 10 11 12 13 14 15 16 17 18
934
FTUS43 KJKL 222327 AAC
TAFSJS
TAF AMD
KSJS 222327Z 2223/2324 VRB03KT P6SM SCT100
     FM231300 VRB03KT P6SM BKN025
     FM231500 20004KT P6SM OVC035
     FM231600 21004KT P6SM OVC030
     FM231700 22005KT P6SM OVC040=

USA.gov is the U.S. government's official web portal to all federal, state and local government web resources and services.